Time;durP1;ratioP1;P1;durP2;ratioP2;P2;SDS_P1;SDS_P2;PMS_P1;PMS_P2;Temp;Humidity;BMP_temperature;BMP_pressure;BME280_temperature;BME280_humidity;BME280_pressure;Samples;Min_cycle;Max_cycle;Signal;HPM_P1;HPM_P2
2023/01/21 00:00:39;;;;;;;60.90;50.85;;;15.70;65.00;;;;;;4957324;28;88106;-57
2023/01/21 00:03:05;;;;;;;61.83;51.33;;;15.80;65.30;;;;;;4943527;28;89025;-57
2023/01/21 00:05:31;;;;;;;60.17;50.22;;;15.80;64.90;;;;;;4951791;28;88266;-53
2023/01/21 00:07:56;;;;;;;59.40;50.67;;;15.80;64.80;;;;;;4946656;28;86352;-56
2023/01/21 00:10:22;;;;;;;61.40;50.78;;;15.80;65.00;;;;;;4940543;28;88045;-56
2023/01/21 00:12:48;;;;;;;61.85;50.85;;;15.80;64.50;;;;;;4949326;28;87013;-50
2023/01/21 00:15:13;;;;;;;59.92;50.17;;;15.90;65.30;;;;;;4953707;28;93274;-55
2023/01/21 00:17:41;;;;;;;61.45;50.60;;;15.90;65.10;;;;;;4948681;28;87770;-52
2023/01/21 00:20:08;;;;;;;59.92;50.67;;;15.80;64.80;;;;;;4964427;28;87558;-57
2023/01/21 00:22:33;;;;;;;60.47;51.08;;;15.70;65.00;;;;;;4957841;28;86023;-49
2023/01/21 00:24:59;;;;;;;60.60;50.97;;;15.80;65.40;;;;;;4953805;28;87255;-50
2023/01/21 00:27:25;;;;;;;62.42;50.95;;;15.70;65.30;;;;;;4946152;28;88189;-57
2023/01/21 00:29:50;;;;;;;61.25;50.97;;;15.70;65.30;;;;;;4956289;28;86257;-57
2023/01/21 00:32:16;;;;;;;61.17;51.17;;;15.70;65.30;;;;;;4956123;28;87690;-56
2023/01/21 00:34:42;;;;;;;61.55;50.55;;;15.70;65.40;;;;;;4948592;28;88321;-55
2023/01/21 00:37:07;;;;;;;61.78;50.92;;;15.70;65.60;;;;;;4952095;28;87366;-57
2023/01/21 00:39:33;;;;;;;60.47;51.38;;;15.60;64.90;;;;;;4955908;28;94250;-56
2023/01/21 00:41:59;;;;;;;61.17;51.10;;;15.50;65.80;;;;;;4958455;28;90540;-54
2023/01/21 00:44:24;;;;;;;61.80;50.95;;;15.50;65.50;;;;;;4967022;28;85886;-56
2023/01/21 00:46:50;;;;;;;61.47;51.15;;;15.50;65.60;;;;;;4960641;28;85426;-55
2023/01/21 00:49:16;;;;;;;61.10;51.15;;;15.50;65.60;;;;;;4945007;28;86165;-55
2023/01/21 00:51:41;;;;;;;60.53;51.72;;;15.40;65.50;;;;;;4952974;28;85972;-54
2023/01/21 00:54:07;;;;;;;61.03;51.33;;;15.50;65.40;;;;;;4952478;28;86782;-55
2023/01/21 00:56:33;;;;;;;61.88;51.97;;;15.50;65.30;;;;;;4957514;28;87911;-57
2023/01/21 00:58:58;;;;;;;61.97;52.17;;;15.40;65.50;;;;;;4964928;28;85792;-55
2023/01/21 01:01:26;;;;;;;60.55;51.78;;;15.40;65.30;;;;;;4952339;28;87422;-54
2023/01/21 01:03:52;;;;;;;61.20;51.65;;;15.40;65.80;;;;;;4964561;28;86302;-56
2023/01/21 01:06:22;;;;;;;60.38;51.10;;;15.30;65.60;;;;;;4961890;28;85998;-56
2023/01/21 01:08:48;;;;;;;60.17;51.43;;;15.50;66.00;;;;;;4960083;28;86098;-56
2023/01/21 01:11:16;;;;;;;60.38;51.65;;;15.60;65.60;;;;;;4960976;28;86955;-55
2023/01/21 01:13:42;;;;;;;61.47;52.00;;;15.40;65.30;;;;;;4955848;28;85552;-55
2023/01/21 01:16:11;;;;;;;60.95;51.45;;;15.40;65.60;;;;;;4959771;28;86883;-56
2023/01/21 01:18:37;;;;;;;62.13;52.17;;;15.40;65.40;;;;;;4955398;28;87443;-56
2023/01/21 01:21:04;;;;;;;60.83;51.83;;;15.40;65.60;;;;;;4949149;28;86855;-55
2023/01/21 01:23:30;;;;;;;59.97;51.60;;;15.40;65.50;;;;;;4949836;28;85878;-56
2023/01/21 01:25:56;;;;;;;60.35;51.30;;;15.30;64.90;;;;;;4956616;27;86599;-55
2023/01/21 01:28:22;;;;;;;58.95;51.08;;;15.40;65.40;;;;;;4961937;28;86562;-55
2023/01/21 01:30:48;;;;;;;63.42;51.95;;;15.40;64.80;;;;;;4962026;28;86162;-55
2023/01/21 01:33:14;;;;;;;62.42;52.40;;;15.30;64.60;;;;;;4964830;28;85526;-50
2023/01/21 01:35:40;;;;;;;59.83;51.67;;;15.30;64.60;;;;;;4978531;28;85766;-57
2023/01/21 01:38:08;;;;;;;60.78;52.17;;;15.30;65.00;;;;;;4960854;28;90711;-56
2023/01/21 01:40:34;;;;;;;60.03;51.60;;;15.30;64.50;;;;;;4965252;27;86744;-57
2023/01/21 01:43:00;;;;;;;63.13;51.55;;;15.20;64.60;;;;;;4968165;28;86393;-51
2023/01/21 01:45:25;;;;;;;60.53;51.55;;;15.20;65.10;;;;;;4959397;28;85732;-54
2023/01/21 01:47:59;;;;;;;60.60;52.13;;;15.20;64.80;;;;;;4957287;28;86541;-52
2023/01/21 01:50:31;;;;;;;59.75;51.60;;;15.20;64.70;;;;;;4961798;28;89900;-54
2023/01/21 01:52:59;;;;;;;61.45;52.63;;;15.20;64.80;;;;;;4965399;28;86437;-51
2023/01/21 01:55:30;;;;;;;61.88;51.78;;;15.20;64.90;;;;;;4961281;28;87187;-57
2023/01/21 01:57:56;;;;;;;62.37;52.83;;;15.10;64.90;;;;;;4960738;28;86467;-55
2023/01/21 02:00:24;;;;;;;61.40;51.85;;;15.10;64.70;;;;;;4958127;28;87407;-54
2023/01/21 02:05:37;;;;;;;60.88;52.38;;;15.10;64.30;;;;;;4955167;28;88793;-55
2023/01/21 02:08:04;;;;;;;64.05;52.92;;;14.90;64.60;;;;;;4941908;28;87660;-53
2023/01/21 02:10:30;;;;;;;69.40;53.28;;;15.00;64.70;;;;;;4945621;28;87118;-56
2023/01/21 02:12:57;;;;;;;62.47;52.00;;;14.90;65.30;;;;;;4961889;28;86883;-51
2023/01/21 02:15:31;;;;;;;63.60;52.90;;;14.90;65.00;;;;;;4951465;28;87343;-56
2023/01/21 02:18:21;;;;;;;64.68;53.05;;;14.90;64.80;;;;;;4947945;28;88142;-57
2023/01/21 02:21:03;;;;;;;65.70;53.20;;;14.90;64.40;;;;;;4948187;28;87444;-54
2023/01/21 02:24:05;;;;;;;64.93;52.38;;;14.90;64.90;;;;;;4940677;28;86745;-55
2023/01/21 02:26:50;;;;;;;64.53;52.97;;;14.70;65.00;;;;;;4958396;28;85574;-55
2023/01/21 02:29:15;;;;;;;61.35;52.47;;;14.70;64.90;;;;;;4953271;28;86156;-56
2023/01/21 02:31:50;;;;;;;63.00;52.70;;;14.70;64.60;;;;;;4962162;28;86814;-53
2023/01/21 02:34:34;;;;;;;62.50;53.15;;;14.70;64.30;;;;;;4955912;28;86029;-50
2023/01/21 02:37:18;;;;;;;65.97;52.83;;;14.70;64.70;;;;;;4960267;28;86144;-57
2023/01/21 02:39:44;;;;;;;62.08;52.75;;;14.70;64.30;;;;;;4957611;28;90041;-56
2023/01/21 02:42:27;;;;;;;59.92;52.00;;;14.60;64.20;;;;;;4956866;28;86851;-55
2023/01/21 02:45:38;;;;;;;63.08;53.03;;;14.60;63.80;;;;;;4965665;28;86231;-55
2023/01/21 02:48:13;;;;;;;61.30;51.38;;;14.60;63.90;;;;;;4961948;28;89412;-56
2023/01/21 02:50:44;;;;;;;60.08;51.85;;;14.60;63.90;;;;;;4956981;28;87045;-55
2023/01/21 02:53:34;;;;;;;63.85;52.55;;;14.50;64.10;;;;;;4955795;28;88966;-56
2023/01/21 02:56:07;;;;;;;64.47;52.42;;;14.50;64.00;;;;;;4956358;28;85700;-55
2023/01/21 02:58:35;;;;;;;61.33;52.45;;;14.50;63.80;;;;;;4961692;28;86672;-53
2023/01/21 03:01:16;;;;;;;60.70;52.47;;;14.40;63.80;;;;;;4966604;28;86612;-53
2023/01/21 03:04:05;;;;;;;62.03;52.08;;;14.40;63.70;;;;;;4955796;28;86494;-55
2023/01/21 03:06:51;;;;;;;60.75;52.53;;;14.40;63.70;;;;;;4957582;28;86199;-55
2023/01/21 03:09:24;;;;;;;61.38;51.70;;;14.40;64.00;;;;;;4967632;28;86465;-56
2023/01/21 03:11:53;;;;;;;61.60;51.63;;;14.40;63.90;;;;;;4957297;28;87294;-56
2023/01/21 03:18:05;;;;;;;60.90;51.75;;;14.40;63.90;;;;;;4960874;28;86856;-53
2023/01/21 03:20:39;;;;;;;64.88;52.30;;;14.40;63.40;;;;;;4959192;28;85595;-54
2023/01/21 03:23:09;;;;;;;60.17;51.75;;;14.40;63.50;;;;;;4953675;28;85593;-54
2023/01/21 03:25:36;;;;;;;60.22;51.90;;;14.30;63.10;;;;;;4951808;28;85877;-55
2023/01/21 03:28:07;;;;;;;62.63;51.53;;;14.30;63.40;;;;;;4963455;28;85728;-54
2023/01/21 03:30:33;;;;;;;61.08;52.25;;;14.30;63.60;;;;;;4965678;28;85642;-53
2023/01/21 03:33:01;;;;;;;65.60;52.47;;;14.30;63.80;;;;;;4969982;28;85721;-55
2023/01/21 03:35:44;;;;;;;61.88;52.50;;;14.30;63.70;;;;;;4958056;28;85688;-54
2023/01/21 03:38:28;;;;;;;62.42;52.53;;;14.20;63.50;;;;;;4954795;28;85517;-53
2023/01/21 03:41:18;;;;;;;60.05;52.15;;;14.20;63.40;;;;;;4953926;28;91931;-55
2023/01/21 03:43:44;;;;;;;60.75;52.45;;;14.20;63.40;;;;;;4956151;28;89921;-56
2023/01/21 03:46:15;;;;;;;61.63;52.30;;;14.10;63.10;;;;;;4970087;28;85944;-53
2023/01/21 03:49:03;;;;;;;62.22;52.60;;;14.20;63.40;;;;;;4948661;28;86511;-57
2023/01/21 03:51:35;;;;;;;63.88;53.33;;;14.10;63.40;;;;;;4958243;28;89178;-53
2023/01/21 03:54:01;;;;;;;61.35;52.85;;;14.10;63.30;;;;;;4954770;28;90732;-51
2023/01/21 03:56:27;;;;;;;63.35;52.85;;;14.10;63.90;;;;;;4959397;28;86612;-54
2023/01/21 03:58:53;;;;;;;61.67;53.00;;;14.00;63.50;;;;;;4958408;28;85713;-55
2023/01/21 04:01:19;;;;;;;62.33;53.20;;;14.10;63.30;;;;;;4958258;28;85585;-54
2023/01/21 04:03:45;;;;;;;63.78;52.50;;;14.00;63.70;;;;;;4965168;28;87229;-55
2023/01/21 04:06:21;;;;;;;64.25;53.53;;;14.00;63.20;;;;;;4968955;28;86998;-56
2023/01/21 04:08:48;;;;;;;60.00;51.70;;;14.00;63.70;;;;;;4962999;28;88797;-55
2023/01/21 04:11:14;;;;;;;62.03;52.80;;;13.90;63.40;;;;;;4953412;28;85788;-56
2023/01/21 04:13:39;;;;;;;64.38;53.13;;;14.00;63.50;;;;;;4957635;27;88443;-56
2023/01/21 04:16:06;;;;;;;62.30;52.80;;;13.90;63.40;;;;;;4955556;28;86673;-56
2023/01/21 04:18:31;;;;;;;63.20;53.15;;;13.90;63.40;;;;;;4958571;28;87007;-56
2023/01/21 04:20:57;;;;;;;64.30;52.70;;;13.90;63.10;;;;;;4958950;28;86418;-54
2023/01/21 04:23:23;;;;;;;63.50;52.72;;;13.90;63.50;;;;;;4955092;28;89412;-54
2023/01/21 04:25:50;;;;;;;63.88;53.58;;;13.80;63.40;;;;;;4955879;28;86127;-54
2023/01/21 04:28:17;;;;;;;62.08;53.28;;;13.80;63.30;;;;;;4965243;28;86085;-55
2023/01/21 04:30:42;;;;;;;63.38;53.47;;;13.80;63.10;;;;;;4963113;28;85744;-57
2023/01/21 04:33:08;;;;;;;61.70;52.75;;;13.80;63.10;;;;;;4955343;28;90536;-49
2023/01/21 04:35:37;;;;;;;65.20;54.30;;;13.70;63.00;;;;;;4967476;28;86497;-56
2023/01/21 04:38:03;;;;;;;62.22;52.90;;;13.70;63.20;;;;;;4959576;28;89454;-55
2023/01/21 04:40:29;;;;;;;61.58;53.33;;;13.70;62.90;;;;;;4956714;28;87675;-53
2023/01/21 04:42:54;;;;;;;63.58;52.85;;;13.70;63.00;;;;;;4964900;28;86478;-55
2023/01/21 04:45:20;;;;;;;62.33;53.58;;;13.70;63.20;;;;;;4955458;28;86954;-53
2023/01/21 04:47:46;;;;;;;63.63;53.85;;;13.70;63.00;;;;;;4962416;28;86541;-55
2023/01/21 04:50:13;;;;;;;64.18;54.03;;;13.60;62.70;;;;;;4963347;28;85885;-52
2023/01/21 04:52:40;;;;;;;61.92;53.13;;;13.60;62.80;;;;;;4960720;28;86590;-55
2023/01/21 04:55:07;;;;;;;64.18;54.15;;;13.60;63.00;;;;;;4959394;28;87917;-56
2023/01/21 04:57:33;;;;;;;63.20;53.55;;;13.60;62.80;;;;;;4955514;28;91851;-49
2023/01/21 04:59:59;;;;;;;63.97;53.80;;;13.60;62.90;;;;;;4964510;28;86213;-54
2023/01/21 05:02:25;;;;;;;64.57;53.55;;;13.50;62.70;;;;;;4983175;28;87810;-55
2023/01/21 05:04:50;;;;;;;64.60;53.88;;;13.50;63.10;;;;;;4963171;28;86317;-56
2023/01/21 05:07:16;;;;;;;63.95;53.95;;;13.50;63.00;;;;;;4954584;28;86631;-56
2023/01/21 05:09:42;;;;;;;63.30;53.70;;;13.50;62.80;;;;;;4958438;28;88300;-51
2023/01/21 05:12:08;;;;;;;61.13;52.40;;;13.60;63.10;;;;;;4966481;28;86961;-55
2023/01/21 05:14:34;;;;;;;63.13;54.05;;;13.50;62.90;;;;;;4955552;28;86235;-56
2023/01/21 05:16:59;;;;;;;65.20;54.10;;;13.50;62.60;;;;;;4968983;28;86742;-56
2023/01/21 05:19:25;;;;;;;65.60;54.95;;;13.40;62.80;;;;;;4962965;28;86318;-49
2023/01/21 05:21:51;;;;;;;63.00;54.03;;;13.50;63.30;;;;;;4964210;28;86470;-56
2023/01/21 05:24:17;;;;;;;63.58;54.05;;;13.40;62.80;;;;;;4966490;28;86930;-56
2023/01/21 05:26:42;;;;;;;66.70;54.75;;;13.40;62.90;;;;;;4960522;28;86400;-54
2023/01/21 05:29:08;;;;;;;63.63;54.35;;;13.40;63.00;;;;;;4956406;28;87541;-55
2023/01/21 05:31:34;;;;;;;62.03;53.45;;;13.40;62.80;;;;;;4961497;28;88130;-56
2023/01/21 05:34:00;;;;;;;63.80;53.58;;;13.40;62.90;;;;;;4959987;28;87586;-56
2023/01/21 05:36:25;;;;;;;63.10;54.40;;;13.40;63.00;;;;;;4961382;28;86648;-57
2023/01/21 05:38:51;;;;;;;64.20;53.50;;;13.40;62.90;;;;;;4957189;28;90215;-57
2023/01/21 05:41:17;;;;;;;65.03;54.22;;;13.30;62.80;;;;;;4973599;28;85769;-56
2023/01/21 05:43:42;;;;;;;63.85;54.03;;;13.40;62.60;;;;;;4961742;28;87143;-54
2023/01/21 05:46:08;;;;;;;65.05;54.53;;;13.30;62.70;;;;;;4968733;28;87112;-56
2023/01/21 05:48:34;;;;;;;65.70;54.63;;;13.30;62.60;;;;;;4960845;28;85179;-55
2023/01/21 05:50:59;;;;;;;64.85;54.67;;;13.20;62.80;;;;;;4964764;28;88317;-55
2023/01/21 05:53:25;;;;;;;65.25;55.13;;;13.20;62.70;;;;;;4960540;28;86862;-55
2023/01/21 05:55:54;;;;;;;66.05;54.30;;;13.30;62.60;;;;;;4961681;28;86760;-55
2023/01/21 05:58:21;;;;;;;65.18;55.08;;;13.30;62.50;;;;;;4967833;28;85966;-56
2023/01/21 06:00:47;;;;;;;68.07;55.40;;;13.30;62.40;;;;;;4958977;28;86915;-56
2023/01/21 06:03:14;;;;;;;63.75;54.20;;;13.20;62.50;;;;;;4960605;28;87245;-56
2023/01/21 06:05:43;;;;;;;66.38;55.78;;;13.10;62.50;;;;;;4955273;28;86338;-55
2023/01/21 06:08:10;;;;;;;69.13;55.72;;;13.10;62.70;;;;;;4954373;28;90953;-50
2023/01/21 06:10:35;;;;;;;65.32;54.85;;;13.20;62.90;;;;;;4961684;28;87387;-52
2023/01/21 06:13:02;;;;;;;64.53;54.88;;;13.10;62.80;;;;;;4967941;28;87660;-54
2023/01/21 06:15:27;;;;;;;64.35;54.95;;;13.10;63.10;;;;;;4955527;28;89588;-54
2023/01/21 06:17:53;;;;;;;65.32;55.40;;;13.10;62.80;;;;;;4962634;28;87905;-54
2023/01/21 06:20:19;;;;;;;66.70;55.30;;;13.10;62.50;;;;;;4964797;28;86088;-55
2023/01/21 06:22:45;;;;;;;65.68;54.47;;;13.10;62.70;;;;;;4962477;28;86867;-56
2023/01/21 06:25:11;;;;;;;67.85;55.92;;;13.10;62.70;;;;;;4952188;28;86937;-53
2023/01/21 06:27:37;;;;;;;66.15;54.65;;;13.10;62.80;;;;;;4966497;28;85850;-55
2023/01/21 06:30:07;;;;;;;67.40;55.33;;;13.10;62.60;;;;;;4957736;28;85829;-52
2023/01/21 06:32:34;;;;;;;67.47;55.40;;;13.00;62.40;;;;;;4958365;28;86886;-52
2023/01/21 06:35:00;;;;;;;67.15;55.00;;;13.00;62.90;;;;;;4958377;28;86161;-52
2023/01/21 06:37:26;;;;;;;72.93;56.55;;;13.00;62.60;;;;;;4963931;28;85685;-51
2023/01/21 06:39:52;;;;;;;65.30;54.60;;;13.00;62.40;;;;;;4965294;28;85403;-54
2023/01/21 06:42:17;;;;;;;67.53;55.67;;;13.00;62.30;;;;;;4964796;28;89858;-48
2023/01/21 06:44:44;;;;;;;68.03;55.25;;;13.00;62.60;;;;;;4960531;28;88008;-54
2023/01/21 06:47:09;;;;;;;68.45;54.90;;;13.00;62.40;;;;;;4967948;28;86260;-55
2023/01/21 06:49:35;;;;;;;69.65;55.55;;;13.00;62.50;;;;;;4950147;28;86509;-52
2023/01/21 06:52:01;;;;;;;72.00;56.63;;;13.00;63.20;;;;;;4960497;28;87011;-54
2023/01/21 06:54:27;;;;;;;68.95;55.33;;;13.00;62.50;;;;;;4969371;28;86716;-53
2023/01/21 06:56:52;;;;;;;70.32;56.58;;;12.90;62.40;;;;;;4957089;28;86145;-52
2023/01/21 06:59:18;;;;;;;70.65;55.47;;;13.00;62.40;;;;;;4951875;28;90911;-56
2023/01/21 07:01:44;;;;;;;68.60;56.00;;;13.00;62.30;;;;;;4948091;28;86619;-52
2023/01/21 07:04:10;;;;;;;71.95;55.85;;;12.90;62.40;;;;;;4964021;28;86451;-56
2023/01/21 07:06:40;;;;;;;67.18;55.00;;;13.00;62.80;;;;;;4955692;28;85850;-56
2023/01/21 07:09:06;;;;;;;72.28;56.03;;;13.00;62.60;;;;;;4958162;28;87668;-55
2023/01/21 07:11:32;;;;;;;74.75;55.42;;;13.00;62.40;;;;;;4954190;28;85974;-52
2023/01/21 07:13:58;;;;;;;69.05;56.15;;;13.00;62.50;;;;;;4962854;28;88831;-55
2023/01/21 07:16:23;;;;;;;71.75;55.60;;;12.90;62.40;;;;;;4967117;28;94776;-54
2023/01/21 07:18:49;;;;;;;69.55;54.92;;;12.90;62.50;;;;;;4968864;28;86288;-54
2023/01/21 07:21:15;;;;;;;69.22;55.45;;;12.90;62.40;;;;;;4959851;28;85147;-55
2023/01/21 07:23:41;;;;;;;67.72;55.78;;;12.90;62.30;;;;;;4958721;28;86754;-56
2023/01/21 07:26:06;;;;;;;70.90;55.85;;;12.90;62.60;;;;;;4953068;28;89308;-54
2023/01/21 07:28:32;;;;;;;65.85;55.08;;;12.90;62.40;;;;;;4960898;28;85528;-56
2023/01/21 07:31:01;;;;;;;69.55;56.03;;;12.80;62.30;;;;;;4963642;28;90772;-56
2023/01/21 07:33:27;;;;;;;71.55;56.20;;;12.80;62.50;;;;;;4963801;28;88742;-55
2023/01/21 07:35:54;;;;;;;65.72;55.03;;;12.90;62.50;;;;;;4960661;28;90490;-55
2023/01/21 07:38:19;;;;;;;74.03;56.08;;;12.90;62.40;;;;;;4955418;28;87461;-53
2023/01/21 07:40:49;;;;;;;67.13;54.75;;;12.90;62.50;;;;;;4962878;28;89260;-54
2023/01/21 07:43:15;;;;;;;68.93;55.95;;;12.90;62.30;;;;;;4955520;28;88500;-55
2023/01/21 07:45:41;;;;;;;64.70;55.42;;;12.80;62.40;;;;;;4959432;28;85939;-54
2023/01/21 07:48:07;;;;;;;67.05;55.55;;;12.80;62.40;;;;;;4963880;28;86571;-56
2023/01/21 07:50:33;;;;;;;69.80;56.22;;;12.80;62.30;;;;;;4970137;28;86089;-54
2023/01/21 07:52:59;;;;;;;68.05;55.50;;;12.80;62.50;;;;;;4957006;28;86081;-54
2023/01/21 07:55:25;;;;;;;68.53;55.72;;;12.80;62.30;;;;;;4958985;28;86605;-54
2023/01/21 07:57:51;;;;;;;66.45;55.03;;;12.80;62.90;;;;;;4960521;28;87724;-55
2023/01/21 08:00:17;;;;;;;71.05;55.47;;;12.70;62.30;;;;;;4953951;28;89903;-55
2023/01/21 08:02:43;;;;;;;69.70;56.50;;;12.80;62.50;;;;;;4949434;28;91275;-56
2023/01/21 08:05:09;;;;;;;69.35;55.53;;;12.70;62.10;;;;;;4956465;28;88766;-54
2023/01/21 08:07:35;;;;;;;67.63;55.92;;;12.70;62.20;;;;;;4958067;28;85503;-50
2023/01/21 08:10:01;;;;;;;69.93;56.17;;;12.70;63.00;;;;;;4962423;28;86822;-54
2023/01/21 08:12:26;;;;;;;70.22;56.67;;;12.70;63.10;;;;;;4980653;28;88399;-55
2023/01/21 08:14:53;;;;;;;70.50;57.63;;;12.70;62.50;;;;;;4964938;28;85653;-53
2023/01/21 08:17:19;;;;;;;72.10;57.25;;;12.70;62.70;;;;;;4957543;28;93024;-56
2023/01/21 08:19:45;;;;;;;71.07;56.97;;;12.60;62.50;;;;;;4959116;28;85599;-57
2023/01/21 08:22:10;;;;;;;75.57;59.13;;;12.60;62.70;;;;;;4958629;28;87140;-55
2023/01/21 08:24:36;;;;;;;79.78;63.25;;;12.50;63.10;;;;;;4959396;28;86017;-55
2023/01/21 08:27:02;;;;;;;88.75;67.05;;;12.50;63.40;;;;;;4956498;28;85447;-54
2023/01/21 08:29:27;;;;;;;91.07;68.55;;;12.40;62.90;;;;;;4950770;28;85727;-54
2023/01/21 08:31:53;;;;;;;92.03;67.05;;;12.40;63.30;;;;;;4960179;28;86652;-53
2023/01/21 08:34:19;;;;;;;84.32;65.45;;;12.40;63.20;;;;;;4955417;28;87562;-55
2023/01/21 08:36:44;;;;;;;85.68;65.40;;;12.50;63.00;;;;;;4957337;28;92278;-55
2023/01/21 08:39:16;;;;;;;86.57;65.40;;;12.60;62.40;;;;;;4961787;28;87959;-57
2023/01/21 08:41:43;;;;;;;82.88;64.22;;;12.60;62.40;;;;;;4962326;28;91409;-56
2023/01/21 08:44:09;;;;;;;98.18;72.53;;;12.70;62.10;;;;;;4966722;28;86224;-56
2023/01/21 08:46:34;;;;;;;98.95;72.18;;;12.80;61.80;;;;;;4973462;28;86070;-56
2023/01/21 08:49:00;;;;;;;86.72;68.97;;;12.80;62.10;;;;;;4960874;28;86409;-55
2023/01/21 08:51:26;;;;;;;84.00;67.05;;;12.90;62.10;;;;;;4966908;28;86342;-56
2023/01/21 08:53:52;;;;;;;85.63;65.55;;;13.10;61.80;;;;;;4957793;28;86050;-56
2023/01/21 08:56:18;;;;;;;81.13;65.30;;;13.20;61.80;;;;;;4950876;28;87153;-54
2023/01/21 08:58:44;;;;;;;84.97;65.68;;;13.30;61.80;;;;;;4962764;27;86216;-55
2023/01/21 09:01:14;;;;;;;79.05;64.45;;;13.50;61.70;;;;;;4949101;28;86756;-56
2023/01/21 09:03:39;;;;;;;80.80;64.65;;;13.60;61.40;;;;;;4958325;28;85498;-50
2023/01/21 09:06:06;;;;;;;79.30;63.70;;;13.70;61.50;;;;;;4973570;28;87699;-55
2023/01/21 09:08:32;;;;;;;78.10;62.80;;;13.80;62.00;;;;;;4953535;28;86832;-53
2023/01/21 09:11:02;;;;;;;76.97;62.25;;;13.80;60.90;;;;;;4967178;28;86296;-55
2023/01/21 09:13:28;;;;;;;80.70;63.97;;;13.90;60.70;;;;;;4952757;28;85712;-56
2023/01/21 09:15:54;;;;;;;78.85;62.53;;;13.90;60.00;;;;;;4963326;28;85549;-53
2023/01/21 09:18:20;;;;;;;78.93;61.90;;;14.00;60.00;;;;;;4970492;28;86852;-57
2023/01/21 09:20:46;;;;;;;79.78;62.80;;;14.10;60.60;;;;;;4960915;28;87579;-55
2023/01/21 09:23:23;;;;;;;77.40;60.88;;;14.10;60.10;;;;;;4963623;28;89268;-55
2023/01/21 09:26:14;;;;;;;77.20;61.45;;;14.30;59.90;;;;;;4960916;28;87114;-55
2023/01/21 09:28:41;;;;;;;79.20;61.28;;;14.40;59.50;;;;;;4954295;28;86576;-55
2023/01/21 09:31:13;;;;;;;77.88;61.08;;;14.40;59.50;;;;;;4975750;28;86285;-56
2023/01/21 09:33:41;;;;;;;75.82;60.42;;;14.50;59.60;;;;;;4956153;28;87713;-55
2023/01/21 09:36:10;;;;;;;75.35;60.35;;;14.60;59.50;;;;;;4965238;28;87123;-55
2023/01/21 09:38:35;;;;;;;75.28;60.28;;;14.60;59.70;;;;;;4962030;28;86123;-56
2023/01/21 09:41:30;;;;;;;73.60;60.53;;;14.60;60.60;;;;;;4964444;28;86431;-55
2023/01/21 09:44:06;;;;;;;77.15;59.92;;;14.70;60.00;;;;;;4966967;28;87687;-56
2023/01/21 09:46:41;;;;;;;75.82;58.75;;;14.80;59.60;;;;;;4964118;28;85920;-55
2023/01/21 09:49:12;;;;;;;74.88;59.50;;;14.90;59.30;;;;;;4955598;28;86398;-56
2023/01/21 09:51:57;;;;;;;73.85;58.78;;;15.00;59.30;;;;;;4964652;28;86515;-57
2023/01/21 09:54:29;;;;;;;75.43;58.97;;;15.00;59.60;;;;;;4961126;28;86092;-54
2023/01/21 09:56:55;;;;;;;77.25;58.92;;;15.00;59.50;;;;;;4958279;28;85687;-57
2023/01/21 09:59:32;;;;;;;74.40;58.25;;;15.00;59.20;;;;;;4965713;28;85904;-55
2023/01/21 10:01:59;;;;;;;71.85;57.33;;;15.00;59.20;;;;;;4953525;28;86113;-54
2023/01/21 10:04:42;;;;;;;74.35;57.80;;;15.00;59.40;;;;;;4954590;28;90881;-57
2023/01/21 10:07:17;;;;;;;76.88;57.65;;;15.00;59.40;;;;;;4950890;28;91565;-56
2023/01/21 10:09:51;;;;;;;73.45;58.10;;;15.10;59.20;;;;;;4960731;28;87459;-56
2023/01/21 10:12:27;;;;;;;71.95;57.70;;;15.20;59.10;;;;;;4963579;28;86101;-56
2023/01/21 10:15:09;;;;;;;72.50;58.13;;;15.10;58.80;;;;;;4963517;28;86384;-55
2023/01/21 10:17:57;;;;;;;71.05;57.38;;;15.20;58.80;;;;;;4956024;28;91960;-56
2023/01/21 10:20:35;;;;;;;68.80;56.08;;;15.20;59.00;;;;;;4954416;28;88559;-55
2023/01/21 10:23:13;;;;;;;70.63;56.22;;;15.30;59.60;;;;;;4956883;28;86244;-55
2023/01/21 10:25:40;;;;;;;69.35;55.50;;;15.30;59.70;;;;;;4957358;28;85737;-56
2023/01/21 10:28:22;;;;;;;71.25;55.22;;;15.40;59.90;;;;;;4963003;28;91185;-54
2023/01/21 10:30:53;;;;;;;69.80;56.75;;;15.50;60.40;;;;;;4962493;28;94570;-56
2023/01/21 10:33:24;;;;;;;68.57;55.53;;;15.30;59.60;;;;;;4955874;28;87506;-57
2023/01/21 10:36:16;;;;;;;69.15;55.63;;;15.40;59.50;;;;;;4940236;28;87319;-50
2023/01/21 10:38:55;;;;;;;72.45;55.88;;;15.30;59.50;;;;;;4961669;28;87335;-56
2023/01/21 10:41:53;;;;;;;77.15;56.72;;;15.30;59.60;;;;;;4959032;28;86561;-53
2023/01/21 10:44:37;;;;;;;70.82;55.33;;;15.30;59.60;;;;;;4953835;28;91272;-56
2023/01/21 10:47:21;;;;;;;69.65;55.28;;;15.60;59.70;;;;;;4962093;28;87820;-56
2023/01/21 10:50:10;;;;;;;75.22;56.90;;;16.00;58.90;;;;;;4955147;28;85577;-57
2023/01/21 10:53:16;;;;;;;70.53;56.20;;;16.40;57.60;;;;;;4944104;28;87270;-57
2023/01/21 10:56:17;;;;;;;69.70;55.72;;;16.60;57.00;;;;;;4950637;28;86247;-56
2023/01/21 10:58:54;;;;;;;70.05;56.38;;;16.70;56.70;;;;;;4960653;28;86035;-52
2023/01/21 11:01:38;;;;;;;69.30;56.47;;;16.70;56.20;;;;;;4946075;28;87351;-57
2023/01/21 11:04:30;;;;;;;67.38;55.70;;;16.80;56.00;;;;;;4959461;28;91307;-57
2023/01/21 11:06:55;;;;;;;70.35;55.63;;;16.90;55.60;;;;;;4947122;28;86594;-57
2023/01/21 11:09:25;;;;;;;71.03;55.45;;;16.90;55.40;;;;;;4951296;28;88019;-57
2023/01/21 11:11:51;;;;;;;69.85;55.03;;;17.00;55.20;;;;;;4954502;28;90483;-57
2023/01/21 11:14:17;;;;;;;69.03;55.80;;;17.00;55.20;;;;;;4950210;28;90498;-55
2023/01/21 11:16:44;;;;;;;68.57;55.13;;;17.00;55.00;;;;;;4956129;28;86475;-56
2023/01/21 11:19:30;;;;;;;69.60;55.42;;;17.00;54.90;;;;;;4956386;28;86398;-53
2023/01/21 11:22:11;;;;;;;71.97;55.80;;;17.10;54.70;;;;;;4951959;28;87294;-49
2023/01/21 11:24:48;;;;;;;70.35;55.33;;;17.10;54.50;;;;;;4965200;28;85581;-56
2023/01/21 11:27:20;;;;;;;68.25;55.20;;;17.10;54.20;;;;;;4956499;28;87286;-56
2023/01/21 11:29:46;;;;;;;;;;;17.10;54.70;;;;;;4959804;28;86035;-56
2023/01/21 11:32:23;;;;;;;67.10;54.78;;;17.10;54.50;;;;;;4957641;28;90168;-57
2023/01/21 11:34:54;;;;;;;66.90;54.63;;;17.10;54.30;;;;;;4955849;28;91051;-55
2023/01/21 11:37:25;;;;;;;67.47;55.53;;;17.10;54.30;;;;;;4953889;28;86886;-54
2023/01/21 11:40:04;;;;;;;68.63;55.00;;;17.10;54.60;;;;;;4955642;28;85575;-57
2023/01/21 11:42:31;;;;;;;68.18;55.05;;;17.10;54.40;;;;;;4954832;28;86705;-53
2023/01/21 11:44:58;;;;;;;69.95;55.22;;;17.10;54.40;;;;;;4956130;28;87780;-56
2023/01/21 11:47:46;;;;;;;69.35;54.58;;;17.10;54.90;;;;;;4959296;28;93501;-57
2023/01/21 11:50:15;;;;;;;69.10;54.35;;;17.20;54.20;;;;;;4964025;28;85794;-53
2023/01/21 11:52:40;;;;;;;70.05;54.47;;;17.10;53.90;;;;;;4962635;28;86203;-57
2023/01/21 11:55:23;;;;;;;65.13;53.35;;;16.90;53.80;;;;;;4958782;28;86796;-57
2023/01/21 11:57:52;;;;;;;64.82;52.72;;;16.90;54.70;;;;;;4955965;28;86908;-57
2023/01/21 12:00:21;;;;;;;78.30;63.60;;;16.90;54.40;;;;;;4959011;28;86841;-53
2023/01/21 12:02:58;;;;;;;78.22;62.50;;;16.90;54.40;;;;;;4954807;27;86568;-57
2023/01/21 12:05:41;;;;;;;77.25;61.72;;;17.00;54.40;;;;;;4953476;28;87051;-58
2023/01/21 12:08:22;;;;;;;79.75;62.40;;;17.10;54.50;;;;;;4941638;28;87090;-55
2023/01/21 12:10:49;;;;;;;78.25;62.13;;;17.20;54.80;;;;;;4957538;27;93443;-59
2023/01/21 12:13:21;;;;;;;76.70;61.35;;;17.40;54.90;;;;;;4947170;28;85574;-59
2023/01/21 12:16:10;;;;;;;74.47;60.72;;;17.40;55.60;;;;;;4956003;28;88230;-57
2023/01/21 12:19:04;;;;;;;74.97;61.00;;;17.40;55.60;;;;;;4958121;28;85797;-59
2023/01/21 12:21:41;;;;;;;77.32;58.90;;;17.40;55.60;;;;;;4951700;28;86243;-56
2023/01/21 12:24:25;;;;;;;75.95;59.65;;;17.40;55.90;;;;;;4957928;28;87045;-54
2023/01/21 12:27:11;;;;;;;75.80;60.33;;;17.30;56.40;;;;;;4957012;28;87420;-53
2023/01/21 12:29:40;;;;;;;77.00;59.90;;;17.30;56.50;;;;;;4963100;28;86270;-50
2023/01/21 12:32:23;;;;;;;78.20;59.42;;;17.30;56.80;;;;;;4962402;28;86898;-56
2023/01/21 12:35:04;;;;;;;73.07;58.80;;;17.30;57.10;;;;;;4955312;28;85442;-58
2023/01/21 12:37:47;;;;;;;73.77;59.33;;;17.40;57.20;;;;;;4959430;28;89078;-61
2023/01/21 12:40:30;;;;;;;72.72;58.42;;;17.40;57.30;;;;;;4953785;28;87086;-55
2023/01/21 12:43:02;;;;;;;73.90;59.10;;;17.30;57.20;;;;;;4954263;28;86330;-52
2023/01/21 12:45:37;;;;;;;70.45;58.75;;;17.30;58.10;;;;;;4951990;28;92711;-47
2023/01/21 12:48:14;;;;;;;75.93;58.50;;;17.40;57.90;;;;;;4951705;28;86648;-57
2023/01/21 12:50:45;;;;;;;73.20;58.08;;;17.30;57.70;;;;;;4959502;28;86374;-53